Terminal Aerodrome Forecast
Issued by NWS

Home | Current Version | Previous Version | Text Only | Print | Product List | Glossary On
Versions: 1 2 3 4 5 6 7 8 9 10 11 12 13 14 15
000
FTUS46 KMTR 272329
TAFOAK
TAF
KOAK 272329Z 2800/2906 30012KT P6SM FEW200
     FM280300 29009KT P6SM FEW010 SCT200
     FM280900 31004KT P6SM SCT010
     FM281500 29008KT P6SM FEW010
     FM282100 30012KT P6SM FEW200
     FM290300 29009KT P6SM FEW200=

USA.gov is the U.S. government's official web portal to all federal, state and local government web resources and services.